createdAt,value
2022-08-05T00:04:43.408Z,63.81
2022-08-05T00:13:07.903Z,63.89
2022-08-05T00:21:42.726Z,64.13
2022-08-05T00:30:11.301Z,64.62
2022-08-05T00:38:34.888Z,64.84
2022-08-05T00:47:02.255Z,65.02
2022-08-05T00:55:33.975Z,64.98
2022-08-05T01:04:13.660Z,65.40
2022-08-05T01:12:38.492Z,65.60
2022-08-05T01:21:38.219Z,65.40
2022-08-05T01:30:04.480Z,65.52
2022-08-05T01:38:29.928Z,65.70
2022-08-05T01:46:55.576Z,65.94
2022-08-05T01:55:22.693Z,66.01
2022-08-05T02:03:48.352Z,66.34
2022-08-05T02:12:21.780Z,66.38
2022-08-05T02:20:58.647Z,66.42
2022-08-05T02:29:58.162Z,66.54
2022-08-05T02:38:09.322Z,66.65
2022-08-05T02:46:33.912Z,67.03
2022-08-05T02:54:58.909Z,67.27
2022-08-05T03:03:33.929Z,67.41
2022-08-05T03:11:58.308Z,67.39
2022-08-05T03:20:21.331Z,67.82
2022-08-05T03:28:46.731Z,68.02
2022-08-05T03:37:11.054Z,68.14
2022-08-05T03:45:57.883Z,68.14
2022-08-05T03:55:52.077Z,68.76
2022-08-05T04:03:06.872Z,69.32
2022-08-05T04:11:50.571Z,69.17
2022-08-05T04:20:24.101Z,68.78
2022-08-05T04:28:51.316Z,68.47
2022-08-05T04:37:15.080Z,68.13
2022-08-05T04:45:48.365Z,67.58
2022-08-05T04:54:14.734Z,67.02
2022-08-05T05:02:42.034Z,66.52
2022-08-05T05:11:07.171Z,65.78
2022-08-05T05:19:36.598Z,65.74
2022-08-05T05:28:02.661Z,64.88
2022-08-05T05:36:28.797Z,63.12
2022-08-05T05:44:52.927Z,62.13
2022-08-05T05:53:23.091Z,61.66
2022-08-05T06:01:57.381Z,61.51
2022-08-05T06:10:20.995Z,60.12
2022-08-05T06:18:46.678Z,58.72
2022-08-05T06:27:17.349Z,57.89
2022-08-05T06:36:04.215Z,57.48
2022-08-05T06:44:32.919Z,57.52
2022-08-05T06:52:58.578Z,57.46
2022-08-05T07:01:22.686Z,55.86
2022-08-05T07:09:45.918Z,54.81
2022-08-05T07:18:29.158Z,54.75
2022-08-05T07:26:53.836Z,54.41
2022-08-05T07:36:04.061Z,53.23
2022-08-05T07:43:59.949Z,53.23
2022-08-05T07:52:23.924Z,52.39
2022-08-05T08:00:50.575Z,52.15
2022-08-05T08:09:13.846Z,51.93
2022-08-05T08:17:43.972Z,51.23
2022-08-05T08:26:13.487Z,49.58
2022-08-05T08:34:36.602Z,50.17
2022-08-05T08:45:17.202Z,49.52
2022-08-05T08:52:03.214Z,48.67
2022-08-05T09:00:30.733Z,48.41
2022-08-05T09:08:53.601Z,48.05
2022-08-05T09:36:07.857Z,46.43
2022-08-05T09:44:42.300Z,47.18
2022-08-05T09:53:05.218Z,46.79
2022-08-05T10:01:31.982Z,46.73
2022-08-05T10:10:13.926Z,46.73
2022-08-05T10:18:38.999Z,46.42
2022-08-05T10:27:03.743Z,46.49
2022-08-05T10:35:40.294Z,45.36
2022-08-05T10:44:11.633Z,45.86
2022-08-05T10:53:07.148Z,46.07
2022-08-05T11:01:55.233Z,45.61
2022-08-05T11:10:29.338Z,46.42
2022-08-05T11:20:16.793Z,46.54
2022-08-05T11:28:17.043Z,45.87
2022-08-05T11:36:53.031Z,46.04
2022-08-05T11:46:15.045Z,46.29
2022-08-05T11:54:02.661Z,47.41
2022-08-05T12:02:30.367Z,46.61
2022-08-05T12:10:59.552Z,45.94
2022-08-05T12:20:26.325Z,46.31
2022-08-05T12:28:11.199Z,45.53
2022-08-05T12:36:39.521Z,45.32
2022-08-05T12:45:09.570Z,45.66
2022-08-05T12:53:36.723Z,44.40
2022-08-05T13:02:07.534Z,44.11
2022-08-05T13:10:33.271Z,44.23
2022-08-05T13:18:59.428Z,44.06
2022-08-05T13:27:38.629Z,44.15
2022-08-05T13:36:02.143Z,43.90
2022-08-05T13:44:28.402Z,43.18
2022-08-05T13:52:51.820Z,43.38
2022-08-05T14:01:16.254Z,43.03
2022-08-05T14:09:46.197Z,43.24
2022-08-05T14:18:14.644Z,42.88
2022-08-05T14:26:51.549Z,43.14
2022-08-05T14:35:23.775Z,42.88
2022-08-05T14:44:09.387Z,42.50
2022-08-05T14:52:52.509Z,42.49
2022-08-05T15:01:24.213Z,42.88
2022-08-05T15:10:03.346Z,42.92
2022-08-05T15:18:26.427Z,42.38
2022-08-05T15:26:49.363Z,42.53
2022-08-05T15:35:14.928Z,42.55
2022-08-05T15:43:45.729Z,42.86
2022-08-05T15:52:16.353Z,42.62
2022-08-05T16:01:11.903Z,42.70
2022-08-05T16:09:35.712Z,42.95
2022-08-05T16:17:59.338Z,42.87
2022-08-05T16:26:26.230Z,43.22
2022-08-05T16:34:50.902Z,43.28
2022-08-05T16:43:14.317Z,43.63
2022-08-05T16:51:50.150Z,43.87
2022-08-05T17:00:25.781Z,43.96
2022-08-05T17:08:57.195Z,44.17
2022-08-05T17:17:22.505Z,44.77
2022-08-05T17:25:45.610Z,45.08
2022-08-05T17:34:08.473Z,45.54
2022-08-05T17:42:32.936Z,45.82
2022-08-05T17:50:56.193Z,46.57
2022-08-05T17:59:21.080Z,46.95
2022-08-05T18:07:45.575Z,47.85
2022-08-05T18:16:13.645Z,48.47
2022-08-05T18:24:36.769Z,50.05
2022-08-05T18:33:02.049Z,51.13
2022-08-05T18:41:58.005Z,52.29
2022-08-05T18:50:42.180Z,53.02
2022-08-05T18:59:42.731Z,53.33
2022-08-05T19:07:53.109Z,55.19
2022-08-05T19:16:24.948Z,55.90
2022-08-05T19:24:55.885Z,57.07
2022-08-05T19:33:35.256Z,57.60
2022-08-05T19:42:08.155Z,58.12
2022-08-05T19:50:33.493Z,58.86
2022-08-05T19:58:57.304Z,59.10
2022-08-05T20:07:48.701Z,59.79
2022-08-05T20:16:12.215Z,60.11
2022-08-05T20:24:35.285Z,60.50
2022-08-05T20:32:58.620Z,60.72
2022-08-05T20:41:23.878Z,60.69
2022-08-05T20:49:51.282Z,60.65
2022-08-05T20:58:17.075Z,60.92
2022-08-05T21:06:45.646Z,60.93
2022-08-05T21:15:09.452Z,61.00
2022-08-05T21:23:37.244Z,61.60
2022-08-05T21:32:03.863Z,60.94
2022-08-05T21:40:26.850Z,60.52
2022-08-05T21:48:49.689Z,60.43
2022-08-05T21:57:30.749Z,60.39
2022-08-05T22:05:54.870Z,60.56
2022-08-05T22:14:35.782Z,60.42
2022-08-05T22:23:21.683Z,60.74
2022-08-05T22:31:45.290Z,60.96
2022-08-05T22:40:09.530Z,60.97
2022-08-05T22:48:40.340Z,61.05
2022-08-05T22:57:06.025Z,61.38
2022-08-05T23:05:29.462Z,61.54
2022-08-05T23:13:58.951Z,61.55
2022-08-05T23:22:27.523Z,61.78
2022-08-05T23:30:53.134Z,62.10
2022-08-05T23:39:31.960Z,62.31
2022-08-05T23:47:59.435Z,62.38
2022-08-05T23:56:27.332Z,62.74
